Latest Weather Observations for Pound Creek

IDV60801

Issued at 4:22 pm EST Tuesday 16 July 2019 (issued every 10 minutes, with the page automatically refreshed every 10 minutes)

About weather observations | Map of weather stations | Latest weather observations for VIC | Other Formats
Station Details ID: 085099 Name: POUND CREEK Lat: -38.63 Lon: 145.81 Height: 3.0 m
Data from the previous 72 hours. | See also: Recent months at Pound Creek
Date/Time
EST
Temp
°C
App
Temp
°C
Dew
Point
°C
Rel
Hum
%
Delta-T
°C
Wind Press
QNH
hPa
Press
MSL
hPa
Rain since
9am
mm
Dir  Spd
km/h
Gust
km/h
Spd
kts
Gust
kts
16/04:00pm 12.0 6.6 10.9 93 0.6 W 30 46 16 25 1019.4 1019.4 0.8
16/03:30pm 12.6 7.2 10.8 89 0.9 W 30 43 16 23 1019.3 1019.3 0.6
16/03:00pm 12.7 7.2 10.6 87 1.1 W 30 41 16 22 1019.3 1019.3 0.6
16/02:30pm 12.9 7.9 10.8 87 1.1 W 28 41 15 22 1019.3 1019.3 0.6
16/02:00pm 12.4 6.9 10.6 89 0.9 W 30 48 16 26 1019.3 1019.3 0.6
16/01:53pm 12.4 6.9 10.6 89 0.9 W 30 48 16 26 1019.3 1019.3 0.6
16/01:30pm 11.9 6.0 10.5 91 0.7 W 32 46 17 25 1019.4 1019.4 0.6
16/01:00pm 12.3 6.8 10.5 89 0.9 W 30 44 16 24 1019.7 1019.7 0.6
16/12:48pm 12.0 6.8 10.4 90 0.8 W 28 48 15 26 1019.7 1019.7 0.6
16/12:30pm 11.9 6.7 10.3 90 0.8 W 28 35 15 19 1020.0 1020.0 0.4
16/12:03pm 12.1 6.5 10.0 87 1.1 W 30 52 16 28 1020.2 1020.2 0.4
16/12:00pm 12.1 6.5 10.0 87 1.1 W 30 41 16 22 1020.3 1020.3 0.4
16/11:30am 11.8 6.2 10.0 89 0.9 W 30 43 16 23 1020.6 1020.6 0.4
16/11:00am 12.5 7.3 10.2 86 1.2 W 28 39 15 21 1020.7 1020.7 0.0
16/10:30am 12.6 7.7 9.8 83 1.4 W 26 35 14 19 1020.5 1020.5 0.0
16/10:00am 12.1 7.1 9.7 85 1.2 W 26 41 14 22 1020.8 1020.8 0.0
16/09:30am 12.3 7.1 8.8 79 1.7 W 26 39 14 21 1020.4 1020.4 0.0
16/09:00am 11.5 5.9 8.9 84 1.3 W 28 43 15 23 1020.4 1020.4 1.4
16/08:30am 10.8 4.9 8.9 88 0.9 W 30 46 16 25 1020.5 1020.5 1.4
16/08:05am 11.1 5.5 8.8 86 1.1 WSW 28 48 15 26 1020.4 1020.4 1.4
16/08:00am 11.8 6.9 8.5 80 1.6 W 24 35 13 19 1020.4 1020.4 1.4
16/07:30am 11.5 6.1 8.2 80 1.6 W 26 35 14 19 1020.2 1020.2 1.4
16/07:01am 11.7 6.1 8.6 81 1.5 WSW 28 46 15 25 1020.0 1020.0 1.4
16/07:00am 11.7 6.0 8.4 80 1.6 WSW 28 39 15 21 1020.1 1020.1 1.2
16/06:41am 12.1 6.2 7.6 74 2.2 W 28 50 15 27 1019.7 1019.7 1.2
16/06:30am 11.8 7.2 8.1 78 1.8 W 22 32 12 17 1019.5 1019.5 1.2
16/06:00am 11.7 7.6 7.8 77 1.9 W 19 26 10 14 1019.5 1019.5 1.2
16/05:30am 11.9 5.6 7.2 73 2.3 W 30 46 16 25 1019.2 1019.2 1.2
16/05:26am 11.9 6.1 8.0 77 1.9 W 28 46 15 25 1019.2 1019.2 1.2
16/05:00am 11.6 6.8 9.0 84 1.3 W 24 35 13 19 1019.3 1019.3 1.2
16/04:30am 11.5 6.7 8.9 84 1.3 W 24 37 13 20 1019.4 1019.4 1.2
16/04:00am 11.9 6.1 7.8 76 2.0 W 28 41 15 22 1019.6 1019.6 1.2
16/03:30am 11.6 5.5 8.1 79 1.7 W 30 41 16 22 1019.7 1019.7 1.2
16/03:00am 11.5 6.6 8.5 82 1.5 W 24 37 13 20 1019.8 1019.8 1.2
16/02:30am 12.0 7.0 7.9 76 2.0 W 24 35 13 19 1020.0 1020.0 1.2
16/02:00am 12.0 6.5 7.7 75 2.1 W 26 37 14 20 1019.9 1019.9 1.2
16/01:30am 12.0 6.6 8.1 77 1.9 W 26 44 14 24 1020.0 1020.0 1.2
16/01:00am 11.6 6.8 9.0 84 1.3 W 24 35 13 19 1020.3 1020.3 1.2
16/12:30am 11.8 6.9 8.6 81 1.6 W 24 35 13 19 1020.4 1020.4 1.2
16/12:00am 11.7 6.9 8.7 82 1.5 W 24 32 13 17 1020.5 1020.5 1.2
 
Date/Time
EST
Temp
°C
App
Temp
°C
Dew
Point
°C
Rel
Hum
%
Delta-T
°C
Wind Press
QNH
hPa
Press
MSL
hPa
Rain since
9am
mm
Dir  Spd
km/h
Gust
km/h
Spd
kts
Gust
kts
15/11:30pm 12.0 6.8 8.8 81 1.6 W 26 33 14 18 1020.3 1020.3 1.2
15/11:00pm 11.8 6.6 8.8 82 1.5 W 26 43 14 23 1020.3 1020.3 1.2
15/10:30pm 12.2 6.3 9.0 81 1.6 W 30 39 16 21 1020.4 1020.4 1.2
15/10:00pm 12.1 7.4 9.1 82 1.5 W 24 35 13 19 1020.6 1020.6 1.2
15/09:33pm 12.1 6.3 9.3 83 1.4 W 30 52 16 28 1020.5 1020.5 1.2
15/09:30pm 12.0 6.5 9.2 83 1.4 W 28 43 15 23 1020.6 1020.6 1.2
15/09:00pm 12.0 7.5 10.2 89 0.9 W 24 32 13 17 1020.6 1020.6 1.2
15/08:30pm 11.4 7.4 10.3 93 0.6 W 22 32 12 17 1020.6 1020.6 1.2
15/08:14pm 11.6 6.1 10.5 93 0.6 W 30 52 16 28 1020.4 1020.4 1.2
15/08:00pm 11.9 7.9 10.6 92 0.7 W 22 32 12 17 1020.3 1020.3 1.0
15/07:30pm 12.1 8.2 10.8 92 0.7 W 22 32 12 17 1020.3 1020.3 0.4
15/07:00pm 12.2 7.2 10.9 92 0.7 W 28 39 15 21 1020.1 1020.1 0.4
15/06:30pm 12.1 7.5 11.0 93 0.6 W 26 35 14 19 1020.0 1020.0 0.2
15/06:00pm 12.4 6.5 10.6 89 0.9 W 32 50 17 27 1019.6 1019.6 0.0
15/05:42pm 12.2 6.8 10.9 92 0.7 W 30 48 16 26 1019.4 1019.4 0.0
15/05:30pm 12.2 6.2 10.9 92 0.7 W 33 46 18 25 1019.1 1019.1 0.0
15/05:00pm 12.4 6.7 11.0 91 0.7 W 32 43 17 23 1019.1 1019.1 0.0
15/04:30pm 12.7 7.5 10.4 86 1.2 W 28 46 15 25 1018.9 1018.9 0.0
15/04:00pm 12.9 7.7 10.3 84 1.3 W 28 41 15 22 1018.8 1018.8 0.0
15/03:30pm 12.9 7.7 10.1 83 1.4 W 28 41 15 22 1018.9 1018.9 0.0
15/03:00pm 12.8 7.6 10.2 84 1.3 W 28 41 15 22 1018.9 1018.9 0.0
15/02:30pm 12.7 6.6 9.9 83 1.4 W 32 43 17 23 1018.8 1018.8 0.0
15/02:00pm 12.8 6.6 9.3 79 1.8 W 32 46 17 25 1018.9 1018.9 0.0
15/01:30pm 12.6 6.7 9.1 79 1.8 W 30 41 16 22 1019.1 1019.1 0.0
15/01:00pm 12.7 7.1 8.6 76 2.0 W 28 37 15 20 1019.6 1019.6 0.0
15/12:30pm 12.8 7.6 8.9 77 2.0 WSW 26 32 14 17 1019.9 1019.9 0.0
15/12:00pm 12.7 7.3 8.0 73 2.3 WSW 26 35 14 19 1020.3 1020.3 0.0
15/11:30am 12.4 6.9 7.7 73 2.3 WSW 26 33 14 18 1020.6 1020.6 0.0
15/11:00am 12.4 6.4 6.9 69 2.6 WSW 28 39 15 21 1020.8 1020.8 0.0
15/10:30am 12.4 7.1 6.9 69 2.6 WSW 24 35 13 19 1020.9 1020.9 0.0
15/10:00am 11.9 5.8 6.4 69 2.6 WSW 28 35 15 19 1020.5 1020.5 0.0
15/09:30am 11.6 5.3 5.7 67 2.7 WSW 28 35 15 19 1020.5 1020.5 0.0
15/09:00am 11.4 4.2 5.1 65 2.9 WSW 32 44 17 24 1020.4 1020.4 10.0
15/08:30am 10.9 4.3 5.9 71 2.3 WSW 30 41 16 22 1019.9 1019.9 10.0
15/08:00am 10.9 3.7 5.2 68 2.6 WSW 32 43 17 23 1019.7 1019.7 10.0
15/07:30am 10.9 4.5 5.4 69 2.5 WSW 28 37 15 20 1019.2 1019.2 10.0
15/07:00am 10.6 5.0 5.6 71 2.3 WSW 24 43 13 23 1018.8 1018.8 10.0
15/06:30am 10.5 3.9 5.9 73 2.1 WSW 30 46 16 25 1018.3 1018.3 10.0
15/06:00am 10.8 3.5 5.3 69 2.5 WSW 33 43 18 23 1017.4 1017.4 10.0
15/05:40am 10.9 3.7 5.7 70 2.4 SW 33 54 18 29 1017.1 1017.1 10.0
15/05:30am 10.9 3.5 5.2 68 2.6 SW 33 46 18 25 1017.2 1017.2 10.0
15/05:00am 10.8 3.7 6.2 73 2.1 SW 33 44 18 24 1016.7 1016.7 10.0
15/04:31am 10.7 3.1 5.7 71 2.3 SW 35 54 19 29 1016.5 1016.5 10.0
15/04:30am 10.7 2.7 5.7 71 2.3 SW 37 54 20 29 1016.5 1016.5 10.0
15/04:04am 10.7 2.6 5.3 69 2.5 SW 37 56 20 30 1016.1 1016.1 10.0
15/04:00am 10.8 1.9 5.1 68 2.6 SW 41 56 22 30 1016.0 1016.0 10.0
15/03:34am 10.6 2.7 6.2 74 2.0 SW 37 57 20 31 1015.8 1015.8 10.0
15/03:30am 10.7 2.3 5.5 70 2.4 SW 39 57 21 31 1015.8 1015.8 10.0
15/03:00am 11.0 3.1 6.0 71 2.3 SW 37 50 20 27 1015.4 1015.4 10.0
15/02:34am 10.4 1.2 6.2 75 2.0 SW 44 67 24 36 1015.1 1015.1 10.0
15/02:30am 10.9 1.6 6.1 72 2.2 SW 44 61 24 33 1014.8 1014.8 10.0
15/02:10am 10.5 3.2 7.2 80 1.6 WSW 35 59 19 32 1014.6 1014.6 9.8
15/02:00am 9.8 2.0 6.7 81 1.4 WSW 37 50 20 27 1014.4 1014.4 9.8
15/01:40am 9.8 0.6 6.2 78 1.7 SW 44 65 24 35 1014.4 1014.4 9.4
15/01:30am 11.0 2.1 6.7 75 2.0 WSW 43 56 23 30 1014.0 1014.0 9.4
15/01:01am 10.8 0.9 6.4 74 2.1 SW 48 67 26 36 1013.8 1013.8 9.4
15/01:00am 10.7 0.4 6.3 74 2.1 SW 50 67 27 36 1013.8 1013.8 9.4
15/12:36am 11.1 1.1 6.0 71 2.4 WSW 48 67 26 36 1013.2 1013.2 9.4
15/12:30am 10.9 0.9 6.1 72 2.2 WSW 48 67 26 36 1013.2 1013.2 9.4
15/12:00am 10.3 0.8 6.6 78 1.7 WSW 46 67 25 36 1013.0 1013.0 9.4
 
Date/Time
EST
Temp
°C
App
Temp
°C
Dew
Point
°C
Rel
Hum
%
Delta-T
°C
Wind Press
QNH
hPa
Press
MSL
hPa
Rain since
9am
mm
Dir  Spd
km/h
Gust
km/h
Spd
kts
Gust
kts
14/11:41pm 10.9 2.5 7.4 79 1.7 WSW 41 59 22 32 1012.7 1012.7 9.4
14/11:30pm 10.7 1.9 7.2 79 1.7 WSW 43 56 23 30 1012.6 1012.6 9.2
14/11:00pm 11.1 2.0 6.6 74 2.1 WSW 44 63 24 34 1012.4 1012.4 9.2
14/10:30pm 10.2 2.6 7.4 83 1.3 WSW 37 59 20 32 1012.3 1012.3 9.2
14/10:01pm 9.8 0.6 8.2 90 0.8 SW 46 65 25 35 1012.5 1012.5 9.2
14/10:00pm 9.7 0.0 7.6 87 1.0 SW 48 65 26 35 1012.5 1012.5 9.0
14/09:37pm 11.0 2.2 7.1 77 1.9 WSW 43 61 23 33 1012.2 1012.2 8.4
14/09:30pm 10.9 1.9 7.4 79 1.7 WSW 44 61 24 33 1012.3 1012.3 8.4
14/09:00pm 9.8 -0.8 6.9 82 1.4 WSW 52 72 28 39 1012.4 1012.4 8.4
14/08:30pm 9.9 -0.6 7.5 85 1.1 WSW 52 70 28 38 1012.0 1012.0 8.2
14/08:00pm 10.0 1.3 8.4 90 0.8 W 44 70 24 38 1011.8 1011.8 7.8
14/07:38pm 10.0 1.4 8.3 89 0.8 WSW 43 61 23 33 1011.7 1011.7 7.4
14/07:30pm 9.8 1.6 8.2 90 0.8 W 41 57 22 31 1011.9 1011.9 7.4
14/07:01pm 10.5 2.3 8.3 86 1.1 W 41 59 22 32 1011.1 1011.1 6.4
14/07:00pm 10.4 2.2 8.3 87 1.0 W 41 59 22 32 1011.1 1011.1 6.4
14/06:30pm 10.2 1.8 7.3 82 1.4 W 41 63 22 34 1011.3 1011.3 6.0
14/06:00pm 10.6 2.1 6.9 78 1.8 W 41 63 22 34 1011.1 1011.1 5.6
14/05:30pm 11.4 1.2 6.9 74 2.1 W 50 72 27 39 1011.2 1011.2 5.6
14/05:00pm 10.8 1.5 7.7 81 1.5 W 46 69 25 37 1011.1 1011.1 5.6
14/04:30pm 10.6 2.8 8.4 86 1.1 W 39 61 21 33 1011.3 1011.3 5.6
14/04:14pm 10.8 3.5 8.7 87 1.0 WNW 37 63 20 34 1011.3 1011.3 5.6
14/04:00pm 10.4 3.4 8.3 87 1.0 WNW 35 50 19 27 1011.4 1011.4 5.4
14/03:30pm 10.2 1.5 7.6 84 1.2 WNW 43 57 23 31 1011.6 1011.6 5.4
14/03:07pm 9.9 2.5 8.5 91 0.7 W 37 57 20 31 1011.8 1011.8 4.4
14/03:00pm 10.1 3.1 8.5 90 0.8 W 35 52 19 28 1011.9 1011.9 3.8
14/02:30pm 10.4 1.8 8.2 86 1.1 W 43 65 23 35 1011.9 1011.9 2.8
14/02:01pm 11.9 3.8 7.2 73 2.3 W 39 65 21 35 1011.7 1011.7 2.4
14/02:00pm 12.1 4.6 7.8 75 2.1 W 37 54 20 29 1011.8 1011.8 2.4
14/01:30pm 10.6 3.8 9.4 92 0.6 WNW 35 48 19 26 1012.2 1012.2 2.4
14/01:00pm 9.9 3.9 8.8 93 0.5 WNW 30 50 16 27 1012.7 1012.7 1.8
14/12:30pm 10.3 4.2 8.4 88 0.9 NW 30 57 16 31 1012.7 1012.7 1.0
14/12:25pm 10.3 4.6 8.2 87 1.0 NW 28 57 15 31 1012.7 1012.7 0.8
14/12:00pm 10.0 4.7 8.3 89 0.8 NW 26 50 14 27 1013.6 1013.6 0.6
14/11:36am 10.2 4.5 8.5 89 0.8 NW 28 48 15 26 1013.9 1013.9 0.4
14/11:30am 9.9 5.0 8.3 90 0.8 NW 24 41 13 22 1014.2 1014.2 0.4
14/11:00am 9.8 4.3 7.7 87 1.0 NW 26 44 14 24 1014.7 1014.7 0.2
14/10:50am 9.7 3.8 7.5 86 1.0 NW 28 50 15 27 1014.7 1014.7 0.0
14/10:30am 9.6 4.1 7.4 86 1.0 NW 26 48 14 26 1015.1 1015.1 0.0
14/10:16am 9.7 3.8 7.6 87 1.0 NW 28 52 15 28 1015.2 1015.2 0.0
14/10:00am 9.4 3.9 7.5 88 0.9 NW 26 44 14 24 1015.2 1015.2 0.0
14/09:49am 9.4 3.5 7.7 89 0.8 NW 28 52 15 28 1015.3 1015.3 0.0
14/09:30am 9.0 3.9 7.5 90 0.7 NW 24 46 13 25 1015.9 1015.9 0.0
14/09:00am 8.6 2.2 7.1 90 0.7 NW 30 46 16 25 1016.0 1016.0 5.8
14/08:30am 9.0 2.9 6.6 85 1.1 NW 28 44 15 24 1016.0 1016.0 5.8
14/08:00am 8.9 3.1 6.2 83 1.2 NW 26 43 14 23 1016.1 1016.1 5.8
14/07:30am 8.6 3.1 6.1 84 1.1 NW 24 43 13 23 1016.2 1016.2 5.8
14/07:00am 8.4 2.9 6.0 85 1.1 NW 24 37 13 20 1016.4 1016.4 5.8
14/06:30am 8.1 3.3 5.7 85 1.1 NW 20 37 11 20 1016.7 1016.7 5.8
14/06:00am 7.8 3.0 5.4 85 1.1 NW 20 37 11 20 1016.5 1016.5 5.8
14/05:30am 7.9 3.3 5.5 85 1.1 NW 19 37 10 20 1017.0 1017.0 5.8
14/05:00am 7.8 3.0 5.8 87 0.9 NW 20 43 11 23 1017.0 1017.0 5.8
14/04:30am 7.2 2.6 5.5 89 0.8 NW 19 32 10 17 1017.7 1017.7 5.8
14/04:00am 7.1 2.9 5.6 90 0.7 NW 17 28 9 15 1018.0 1018.0 5.8
14/03:30am 7.0 2.8 5.5 90 0.7 NW 17 28 9 15 1018.4 1018.4 5.8
14/03:00am 7.1 2.9 5.6 90 0.7 NW 17 28 9 15 1018.9 1018.9 5.6
14/02:30am 7.4 4.0 5.9 90 0.7 NW 13 24 7 13 1019.2 1019.2 5.4
14/02:00am 7.7 3.9 5.8 88 0.9 WNW 15 37 8 20 1019.6 1019.6 5.2
14/01:30am 7.8 4.7 5.6 86 1.0 NW 11 24 6 13 1019.8 1019.8 4.6
14/01:00am 7.3 4.5 5.0 85 1.0 NW 9 15 5 8 1020.3 1020.3 4.6
14/12:30am 7.5 3.7 4.1 79 1.5 NW 13 20 7 11 1020.2 1020.2 4.6
14/12:00am 8.6 4.4 3.8 72 2.1 W 15 24 8 13 1020.4 1020.4 4.6
 
Date/Time
EST
Temp
°C
App
Temp
°C
Dew
Point
°C
Rel
Hum
%
Delta-T
°C
Wind Press
QNH
hPa
Press
MSL
hPa
Rain since
9am
mm
Dir  Spd
km/h
Gust
km/h
Spd
kts
Gust
kts
13/11:30pm 8.4 3.3 4.0 74 1.9 W 20 28 11 15 1020.5 1020.5 4.6
13/11:00pm 8.4 2.9 4.0 74 1.9 WNW 22 33 12 18 1020.7 1020.7 4.6
13/10:30pm 9.6 2.6 4.0 68 2.5 WSW 30 43 16 23 1020.5 1020.5 4.6
13/10:00pm 9.4 2.2 2.9 64 2.8 WSW 30 43 16 23 1020.5 1020.5 4.6
13/09:30pm 9.5 2.0 4.3 70 2.3 SW 33 43 18 23 1020.4 1020.4 4.6
13/09:00pm 9.8 2.9 4.6 70 2.3 WSW 30 48 16 26 1020.1 1020.1 4.6
13/08:59pm 9.9 3.4 4.7 70 2.3 WSW 28 46 15 25 1020.1 1020.1 4.6
13/08:30pm 9.6 1.6 3.8 67 2.5 WSW 35 46 19 25 1019.9 1019.9 4.6
13/08:00pm 9.1 1.5 3.7 69 2.3 WSW 33 44 18 24 1019.6 1019.6 4.6
13/07:40pm 8.6 0.7 4.4 75 1.8 WSW 35 54 19 29 1019.3 1019.3 4.6
13/07:30pm 9.1 1.8 5.3 77 1.7 WSW 33 57 18 31 1019.2 1019.2 4.6
13/07:26pm 9.1 2.7 5.1 76 1.8 WSW 28 46 15 25 1019.3 1019.3 4.6
13/07:00pm 9.1 3.8 5.1 76 1.8 W 22 37 12 20 1018.5 1018.5 4.6
13/06:30pm 8.8 2.9 3.8 71 2.2 W 24 35 13 19 1018.3 1018.3 4.6
13/06:00pm 9.5 1.1 3.9 68 2.4 WSW 37 50 20 27 1017.7 1017.7 4.6
13/05:30pm 9.8 0.6 3.3 64 2.8 WSW 41 54 22 29 1017.1 1017.1 4.6
13/05:00pm 9.3 2.0 4.5 72 2.1 WSW 32 52 17 28 1016.7 1016.7 4.6
13/04:34pm 8.8 1.1 5.5 80 1.5 WSW 35 54 19 29 1016.4 1016.4 4.4
13/04:30pm 8.6 1.4 5.0 78 1.6 W 32 46 17 25 1016.2 1016.2 4.2

Other formats

Comma delimited format used in spreadsheet applications
http://www.bom.gov.au/fwo/IDV60801/IDV60801.94886.axf

JavaScript Object Notation format (JSON) in row-major order
http://www.bom.gov.au/fwo/IDV60801/IDV60801.94886.json

Data quality

Most of these data are generated automatically and are frequently updated. Quality checks on data are not normally performed. It is possible for incorrect values to appear. Refer to information at About Latest Weather Observations and please check the disclaimer before using these data.